sensor_id;sensor_type;location;lat;lon;timestamp;temperature;humidity
7970;DHT22;4030;52.362;9.206;2023-03-13T00:01:01;8.10;95.40
7970;DHT22;4030;52.362;9.206;2023-03-13T00:08:29;8.10;95.50
7970;DHT22;4030;52.362;9.206;2023-03-13T00:15:47;8.10;95.70
7970;DHT22;4030;52.362;9.206;2023-03-13T00:18:13;8.00;95.70
7970;DHT22;4030;52.362;9.206;2023-03-13T00:20:39;8.40;95.90
7970;DHT22;4030;52.362;9.206;2023-03-13T00:37:41;8.20;95.90
7970;DHT22;4030;52.362;9.206;2023-03-13T00:40:08;8.20;95.90
7970;DHT22;4030;52.362;9.206;2023-03-13T00:42:34;8.20;95.90
7970;DHT22;4030;52.362;9.206;2023-03-13T00:45:00;8.40;96.10
7970;DHT22;4030;52.362;9.206;2023-03-13T00:47:26;8.10;95.90
7970;DHT22;4030;52.362;9.206;2023-03-13T00:49:52;8.30;96.00
7970;DHT22;4030;52.362;9.206;2023-03-13T01:14:17;8.30;95.90
7970;DHT22;4030;52.362;9.206;2023-03-13T01:16:43;8.40;96.00
7970;DHT22;4030;52.362;9.206;2023-03-13T01:19:12;8.30;95.90
7970;DHT22;4030;52.362;9.206;2023-03-13T01:21:40;8.10;95.90
7970;DHT22;4030;52.362;9.206;2023-03-13T01:24:07;8.20;95.90
7970;DHT22;4030;52.362;9.206;2023-03-13T01:26:33;8.40;96.00
7970;DHT22;4030;52.362;9.206;2023-03-13T01:31:30;8.30;96.00
7970;DHT22;4030;52.362;9.206;2023-03-13T01:33:59;8.20;95.90
7970;DHT22;4030;52.362;9.206;2023-03-13T01:36:26;8.40;96.10
7970;DHT22;4030;52.362;9.206;2023-03-13T01:38:54;8.40;96.10
7970;DHT22;4030;52.362;9.206;2023-03-13T01:41:22;8.50;96.20
7970;DHT22;4030;52.362;9.206;2023-03-13T01:43:49;8.20;96.00
7970;DHT22;4030;52.362;9.206;2023-03-13T01:48:48;8.40;96.20
7970;DHT22;4030;52.362;9.206;2023-03-13T01:51:28;8.30;96.10
7970;DHT22;4030;52.362;9.206;2023-03-13T01:54:30;8.30;96.10
7970;DHT22;4030;52.362;9.206;2023-03-13T01:57:03;8.30;96.10
7970;DHT22;4030;52.362;9.206;2023-03-13T01:59:36;8.30;96.20
7970;DHT22;4030;52.362;9.206;2023-03-13T02:04:36;8.30;96.10
7970;DHT22;4030;52.362;9.206;2023-03-13T02:07:13;8.30;96.20
7970;DHT22;4030;52.362;9.206;2023-03-13T02:09:43;8.30;96.10
7970;DHT22;4030;52.362;9.206;2023-03-13T02:12:36;8.40;96.20
7970;DHT22;4030;52.362;9.206;2023-03-13T02:15:26;8.20;96.10
7970;DHT22;4030;52.362;9.206;2023-03-13T02:17:52;8.10;96.10
7970;DHT22;4030;52.362;9.206;2023-03-13T02:20:19;8.20;96.20
7970;DHT22;4030;52.362;9.206;2023-03-13T02:27:52;8.50;96.40
7970;DHT22;4030;52.362;9.206;2023-03-13T02:32:46;8.40;96.50
7970;DHT22;4030;52.362;9.206;2023-03-13T02:35:14;8.60;96.60
7970;DHT22;4030;52.362;9.206;2023-03-13T02:37:45;8.40;96.60
7970;DHT22;4030;52.362;9.206;2023-03-13T02:40:15;8.40;96.50
7970;DHT22;4030;52.362;9.206;2023-03-13T02:42:45;8.60;96.70
7970;DHT22;4030;52.362;9.206;2023-03-13T02:45:13;8.40;96.60
7970;DHT22;4030;52.362;9.206;2023-03-13T02:50:06;8.50;96.80
7970;DHT22;4030;52.362;9.206;2023-03-13T02:52:50;8.20;96.60
7970;DHT22;4030;52.362;9.206;2023-03-13T02:55:25;8.30;96.60
7970;DHT22;4030;52.362;9.206;2023-03-13T03:02:50;8.30;96.80
7970;DHT22;4030;52.362;9.206;2023-03-13T03:05:16;8.30;96.90
7970;DHT22;4030;52.362;9.206;2023-03-13T03:07:42;8.30;96.90
7970;DHT22;4030;52.362;9.206;2023-03-13T03:12:34;8.60;97.20
7970;DHT22;4030;52.362;9.206;2023-03-13T03:14:59;8.40;97.10
7970;DHT22;4030;52.362;9.206;2023-03-13T04:08:34;8.70;98.40
7970;DHT22;4030;52.362;9.206;2023-03-13T04:11:00;8.60;98.40
7970;DHT22;4030;52.362;9.206;2023-03-13T04:13:26;8.30;98.30
7970;DHT22;4030;52.362;9.206;2023-03-13T04:18:17;8.60;98.60
7970;DHT22;4030;52.362;9.206;2023-03-13T04:20:43;8.30;98.50
7970;DHT22;4030;52.362;9.206;2023-03-13T04:23:10;8.40;98.60
7970;DHT22;4030;52.362;9.206;2023-03-13T04:25:35;8.40;98.70
7970;DHT22;4030;52.362;9.206;2023-03-13T04:37:46;8.60;99.20
7970;DHT22;4030;52.362;9.206;2023-03-13T04:40:12;8.60;99.30
7970;DHT22;4030;52.362;9.206;2023-03-13T04:42:39;8.80;99.40
7970;DHT22;4030;52.362;9.206;2023-03-13T04:45:07;8.40;99.30
7970;DHT22;4030;52.362;9.206;2023-03-13T05:04:39;8.90;99.90
7970;DHT22;4030;52.362;9.206;2023-03-13T05:09:31;8.50;99.90
7970;DHT22;4030;52.362;9.206;2023-03-13T05:11:56;8.70;99.90
7970;DHT22;4030;52.362;9.206;2023-03-13T05:48:27;8.60;99.90
7970;DHT22;4030;52.362;9.206;2023-03-13T06:12:54;8.80;99.90
7970;DHT22;4030;52.362;9.206;2023-03-13T06:15:20;8.70;99.90
7970;DHT22;4030;52.362;9.206;2023-03-13T06:17:47;8.90;99.90
7970;DHT22;4030;52.362;9.206;2023-03-13T06:20:13;9.00;99.90
7970;DHT22;4030;52.362;9.206;2023-03-13T06:22:39;9.00;99.90
7970;DHT22;4030;52.362;9.206;2023-03-13T06:25:06;8.70;99.90
7970;DHT22;4030;52.362;9.206;2023-03-13T06:32:24;8.70;99.90
7970;DHT22;4030;52.362;9.206;2023-03-13T06:56:47;8.80;99.90
7970;DHT22;4030;52.362;9.206;2023-03-13T07:06:31;9.10;99.90
7970;DHT22;4030;52.362;9.206;2023-03-13T07:08:56;8.90;99.90
7970;DHT22;4030;52.362;9.206;2023-03-13T07:11:22;8.90;99.90
7970;DHT22;4030;52.362;9.206;2023-03-13T07:18:42;9.00;99.90
7970;DHT22;4030;52.362;9.206;2023-03-13T07:21:09;9.30;99.90
7970;DHT22;4030;52.362;9.206;2023-03-13T07:26:04;9.20;99.90
7970;DHT22;4030;52.362;9.206;2023-03-13T07:31:15;9.20;99.90
7970;DHT22;4030;52.362;9.206;2023-03-13T07:33:43;9.10;99.90
7970;DHT22;4030;52.362;9.206;2023-03-13T07:36:10;9.30;99.90
7970;DHT22;4030;52.362;9.206;2023-03-13T07:38:37;9.20;99.90
7970;DHT22;4030;52.362;9.206;2023-03-13T07:41:03;9.20;99.90
7970;DHT22;4030;52.362;9.206;2023-03-13T07:45:58;9.30;99.90
7970;DHT22;4030;52.362;9.206;2023-03-13T07:48:31;9.20;99.90
7970;DHT22;4030;52.362;9.206;2023-03-13T07:51:01;9.40;99.90
7970;DHT22;4030;52.362;9.206;2023-03-13T07:53:27;9.50;99.90
7970;DHT22;4030;52.362;9.206;2023-03-13T07:55:59;9.30;99.90
7970;DHT22;4030;52.362;9.206;2023-03-13T07:58:30;9.20;99.90
7970;DHT22;4030;52.362;9.206;2023-03-13T08:00:58;9.40;99.90
7970;DHT22;4030;52.362;9.206;2023-03-13T08:03:24;9.40;99.90
7970;DHT22;4030;52.362;9.206;2023-03-13T08:06:01;9.50;99.90
7970;DHT22;4030;52.362;9.206;2023-03-13T08:11:02;9.50;99.90
7970;DHT22;4030;52.362;9.206;2023-03-13T08:13:31;9.30;99.90
7970;DHT22;4030;52.362;9.206;2023-03-13T08:18:36;9.50;99.90
7970;DHT22;4030;52.362;9.206;2023-03-13T08:21:08;9.40;99.90
7970;DHT22;4030;52.362;9.206;2023-03-13T08:23:38;9.50;99.90
7970;DHT22;4030;52.362;9.206;2023-03-13T08:26:06;9.50;99.90
7970;DHT22;4030;52.362;9.206;2023-03-13T08:28:33;9.80;99.90
7970;DHT22;4030;52.362;9.206;2023-03-13T08:31:14;9.60;99.90
7970;DHT22;4030;52.362;9.206;2023-03-13T08:33:45;9.60;99.90
7970;DHT22;4030;52.362;9.206;2023-03-13T08:38:40;9.70;99.90
7970;DHT22;4030;52.362;9.206;2023-03-13T08:43:34;9.50;99.90
7970;DHT22;4030;52.362;9.206;2023-03-13T08:48:26;9.70;99.90
7970;DHT22;4030;52.362;9.206;2023-03-13T08:51:11;9.80;99.90
7970;DHT22;4030;52.362;9.206;2023-03-13T08:53:39;9.80;99.90
7970;DHT22;4030;52.362;9.206;2023-03-13T08:56:07;9.80;99.90
7970;DHT22;4030;52.362;9.206;2023-03-13T09:01:02;9.80;99.90
7970;DHT22;4030;52.362;9.206;2023-03-13T09:03:28;9.90;99.90
7970;DHT22;4030;52.362;9.206;2023-03-13T09:05:56;10.00;99.90
7970;DHT22;4030;52.362;9.206;2023-03-13T09:10:57;10.00;99.90
7970;DHT22;4030;52.362;9.206;2023-03-13T09:13:25;10.10;99.90
7970;DHT22;4030;52.362;9.206;2023-03-13T09:16:00;10.10;99.90
7970;DHT22;4030;52.362;9.206;2023-03-13T09:20:56;10.20;99.90
7970;DHT22;4030;52.362;9.206;2023-03-13T09:23:22;10.00;99.90
7970;DHT22;4030;52.362;9.206;2023-03-13T09:25:51;9.90;99.90
7970;DHT22;4030;52.362;9.206;2023-03-13T09:28:18;10.00;99.90
7970;DHT22;4030;52.362;9.206;2023-03-13T09:30:44;10.10;99.90
7970;DHT22;4030;52.362;9.206;2023-03-13T09:33:10;10.00;99.90
7970;DHT22;4030;52.362;9.206;2023-03-13T09:35:37;10.10;99.90
7970;DHT22;4030;52.362;9.206;2023-03-13T09:38:03;10.30;99.90
7970;DHT22;4030;52.362;9.206;2023-03-13T09:40:29;10.20;99.90
7970;DHT22;4030;52.362;9.206;2023-03-13T09:42:59;10.30;99.90
7970;DHT22;4030;52.362;9.206;2023-03-13T09:45:35;10.40;99.90
7970;DHT22;4030;52.362;9.206;2023-03-13T09:48:30;10.20;99.90
7970;DHT22;4030;52.362;9.206;2023-03-13T09:51:22;10.30;99.90
7970;DHT22;4030;52.362;9.206;2023-03-13T09:57:06;10.30;99.90
7970;DHT22;4030;52.362;9.206;2023-03-13T09:59:59;10.40;99.90
7970;DHT22;4030;52.362;9.206;2023-03-13T10:02:33;10.40;99.90
7970;DHT22;4030;52.362;9.206;2023-03-13T10:05:19;10.40;99.90
7970;DHT22;4030;52.362;9.206;2023-03-13T10:07:50;10.30;99.90
7970;DHT22;4030;52.362;9.206;2023-03-13T10:10:33;10.50;99.90
7970;DHT22;4030;52.362;9.206;2023-03-13T10:13:23;10.60;99.90
7970;DHT22;4030;52.362;9.206;2023-03-13T10:16:00;10.60;99.90
7970;DHT22;4030;52.362;9.206;2023-03-13T10:18:26;10.60;99.90
7970;DHT22;4030;52.362;9.206;2023-03-13T10:20:57;10.80;99.90
7970;DHT22;4030;52.362;9.206;2023-03-13T10:25:52;11.00;99.90
7970;DHT22;4030;52.362;9.206;2023-03-13T10:28:18;11.30;99.90
7970;DHT22;4030;52.362;9.206;2023-03-13T10:30:49;11.60;99.90
7970;DHT22;4030;52.362;9.206;2023-03-13T10:33:27;11.80;99.90
7970;DHT22;4030;52.362;9.206;2023-03-13T10:36:07;12.00;99.90
7970;DHT22;4030;52.362;9.206;2023-03-13T10:38:54;12.10;99.90
7970;DHT22;4030;52.362;9.206;2023-03-13T10:41:30;12.20;99.90
7970;DHT22;4030;52.362;9.206;2023-03-13T10:44:18;12.50;99.90
7970;DHT22;4030;52.362;9.206;2023-03-13T10:46:47;12.30;99.90
7970;DHT22;4030;52.362;9.206;2023-03-13T10:49:22;12.50;99.90
7970;DHT22;4030;52.362;9.206;2023-03-13T10:51:55;12.40;99.90
7970;DHT22;4030;52.362;9.206;2023-03-13T10:54:33;12.30;99.90
7970;DHT22;4030;52.362;9.206;2023-03-13T10:57:31;12.30;99.90
7970;DHT22;4030;52.362;9.206;2023-03-13T10:59:56;12.40;99.90
7970;DHT22;4030;52.362;9.206;2023-03-13T11:02:32;12.20;99.90
7970;DHT22;4030;52.362;9.206;2023-03-13T11:05:00;12.30;99.90
7970;DHT22;4030;52.362;9.206;2023-03-13T11:12:46;12.50;99.90
7970;DHT22;4030;52.362;9.206;2023-03-13T11:15:21;12.70;99.90
7970;DHT22;4030;52.362;9.206;2023-03-13T11:18:05;12.80;99.90
7970;DHT22;4030;52.362;9.206;2023-03-13T11:20:38;12.90;99.90
7970;DHT22;4030;52.362;9.206;2023-03-13T11:26:09;13.10;99.90
7970;DHT22;4030;52.362;9.206;2023-03-13T11:28:51;13.30;99.90
7970;DHT22;4030;52.362;9.206;2023-03-13T11:31:28;13.50;99.90
7970;DHT22;4030;52.362;9.206;2023-03-13T11:34:36;13.60;99.90
7970;DHT22;4030;52.362;9.206;2023-03-13T11:37:13;13.80;99.90
7970;DHT22;4030;52.362;9.206;2023-03-13T11:49:23;14.10;99.90
7970;DHT22;4030;52.362;9.206;2023-03-13T11:52:17;14.30;99.90
7970;DHT22;4030;52.362;9.206;2023-03-13T11:54:55;14.50;99.90
7970;DHT22;4030;52.362;9.206;2023-03-13T12:00:23;14.60;99.90
7970;DHT22;4030;52.362;9.206;2023-03-13T12:03:01;14.70;99.90
7970;DHT22;4030;52.362;9.206;2023-03-13T12:05:58;14.70;99.80
7970;DHT22;4030;52.362;9.206;2023-03-13T12:08:29;14.80;99.70
7970;DHT22;4030;52.362;9.206;2023-03-13T12:14:45;14.80;99.30
7970;DHT22;4030;52.362;9.206;2023-03-13T12:16:56;15.00;99.30
7970;DHT22;4030;52.362;9.206;2023-03-13T12:19:33;14.90;99.10
7970;DHT22;4030;52.362;9.206;2023-03-13T12:22:23;15.00;99.00
7970;DHT22;4030;52.362;9.206;2023-03-13T12:25:04;15.10;98.90
7970;DHT22;4030;52.362;9.206;2023-03-13T12:27:41;15.10;98.80
7970;DHT22;4030;52.362;9.206;2023-03-13T12:30:35;15.10;98.70
7970;DHT22;4030;52.362;9.206;2023-03-13T12:33:23;15.30;98.50
7970;DHT22;4030;52.362;9.206;2023-03-13T12:36:07;15.50;98.40
7970;DHT22;4030;52.362;9.206;2023-03-13T12:38:44;15.60;98.30
7970;DHT22;4030;52.362;9.206;2023-03-13T12:41:21;15.80;98.30
7970;DHT22;4030;52.362;9.206;2023-03-13T12:43:52;16.00;98.00
7970;DHT22;4030;52.362;9.206;2023-03-13T12:46:39;16.20;97.90
7970;DHT22;4030;52.362;9.206;2023-03-13T13:00:24;17.00;96.50
7970;DHT22;4030;52.362;9.206;2023-03-13T13:03:28;17.10;96.30
7970;DHT22;4030;52.362;9.206;2023-03-13T13:06:12;17.10;96.20
7970;DHT22;4030;52.362;9.206;2023-03-13T13:16:51;17.10;95.60
7970;DHT22;4030;52.362;9.206;2023-03-13T13:43:48;18.10;94.30
7970;DHT22;4030;52.362;9.206;2023-03-13T13:46:32;18.30;94.10
7970;DHT22;4030;52.362;9.206;2023-03-13T13:51:31;18.60;93.30
7970;DHT22;4030;52.362;9.206;2023-03-13T13:57:20;18.90;92.80
7970;DHT22;4030;52.362;9.206;2023-03-13T13:59:59;18.90;92.70
7970;DHT22;4030;52.362;9.206;2023-03-13T14:02:53;18.70;92.70
7970;DHT22;4030;52.362;9.206;2023-03-13T14:05:29;18.70;92.70
7970;DHT22;4030;52.362;9.206;2023-03-13T14:10:50;18.80;91.90
7970;DHT22;4030;52.362;9.206;2023-03-13T14:13:20;18.90;91.90
7970;DHT22;4030;52.362;9.206;2023-03-13T14:15:48;19.00;91.40
7970;DHT22;4030;52.362;9.206;2023-03-13T14:18:24;19.20;91.00
7970;DHT22;4030;52.362;9.206;2023-03-13T14:21:02;19.40;90.60
7970;DHT22;4030;52.362;9.206;2023-03-13T14:26:19;19.60;89.80
7970;DHT22;4030;52.362;9.206;2023-03-13T14:28:52;19.50;89.70
7970;DHT22;4030;52.362;9.206;2023-03-13T14:31:28;19.60;89.70
7970;DHT22;4030;52.362;9.206;2023-03-13T14:34:03;19.40;89.30
7970;DHT22;4030;52.362;9.206;2023-03-13T14:36:29;19.80;88.80
7970;DHT22;4030;52.362;9.206;2023-03-13T14:42:14;21.80;82.90
7970;DHT22;4030;52.362;9.206;2023-03-13T14:44:41;22.30;80.30
7970;DHT22;4030;52.362;9.206;2023-03-13T14:47:29;22.80;78.30
7970;DHT22;4030;52.362;9.206;2023-03-13T14:50:00;23.10;77.10
7970;DHT22;4030;52.362;9.206;2023-03-13T14:52:29;22.50;77.50
7970;DHT22;4030;52.362;9.206;2023-03-13T14:55:01;21.80;79.20
7970;DHT22;4030;52.362;9.206;2023-03-13T14:57:30;21.10;80.50
7970;DHT22;4030;52.362;9.206;2023-03-13T15:00:30;20.60;81.60
7970;DHT22;4030;52.362;9.206;2023-03-13T15:03:18;20.20;83.00
7970;DHT22;4030;52.362;9.206;2023-03-13T15:10:55;19.50;84.10
7970;DHT22;4030;52.362;9.206;2023-03-13T15:13:35;19.30;84.70
7970;DHT22;4030;52.362;9.206;2023-03-13T15:16:04;19.10;84.80
7970;DHT22;4030;52.362;9.206;2023-03-13T15:18:39;18.80;84.80
7970;DHT22;4030;52.362;9.206;2023-03-13T15:23:48;18.80;85.30
7970;DHT22;4030;52.362;9.206;2023-03-13T15:26:15;18.80;85.30
7970;DHT22;4030;52.362;9.206;2023-03-13T15:31:11;20.50;80.60
7970;DHT22;4030;52.362;9.206;2023-03-13T15:36:03;22.00;75.00
7970;DHT22;4030;52.362;9.206;2023-03-13T15:38:29;22.10;74.00
7970;DHT22;4030;52.362;9.206;2023-03-13T15:40:55;21.50;74.80
7970;DHT22;4030;52.362;9.206;2023-03-13T15:43:21;21.00;75.00
7970;DHT22;4030;52.362;9.206;2023-03-13T15:45:49;20.40;76.50
7970;DHT22;4030;52.362;9.206;2023-03-13T15:48:23;19.80;78.10
7970;DHT22;4030;52.362;9.206;2023-03-13T15:50:59;19.30;79.60
7970;DHT22;4030;52.362;9.206;2023-03-13T15:56:00;18.40;81.80
7970;DHT22;4030;52.362;9.206;2023-03-13T15:58:28;18.10;83.10
7970;DHT22;4030;52.362;9.206;2023-03-13T16:00:55;17.90;83.90
7970;DHT22;4030;52.362;9.206;2023-03-13T16:03:24;17.70;84.80
7970;DHT22;4030;52.362;9.206;2023-03-13T16:05:51;17.30;85.30
7970;DHT22;4030;52.362;9.206;2023-03-13T16:08:20;17.20;85.90
7970;DHT22;4030;52.362;9.206;2023-03-13T16:18:08;16.80;87.70
7970;DHT22;4030;52.362;9.206;2023-03-13T16:20:34;16.70;87.90
7970;DHT22;4030;52.362;9.206;2023-03-13T16:23:00;16.60;88.00
7970;DHT22;4030;52.362;9.206;2023-03-13T16:25:30;16.60;88.40
7970;DHT22;4030;52.362;9.206;2023-03-13T16:27:57;16.50;88.50
7970;DHT22;4030;52.362;9.206;2023-03-13T16:30:25;16.60;88.70
7970;DHT22;4030;52.362;9.206;2023-03-13T16:32:56;16.40;88.70
7970;DHT22;4030;52.362;9.206;2023-03-13T16:35:22;16.50;89.00
7970;DHT22;4030;52.362;9.206;2023-03-13T16:37:51;16.40;89.00
7970;DHT22;4030;52.362;9.206;2023-03-13T16:40:26;16.50;89.10
7970;DHT22;4030;52.362;9.206;2023-03-13T16:45:21;16.50;89.60
7970;DHT22;4030;52.362;9.206;2023-03-13T16:47:47;16.30;89.50
7970;DHT22;4030;52.362;9.206;2023-03-13T16:50:22;16.30;89.70
7970;DHT22;4030;52.362;9.206;2023-03-13T16:52:54;16.30;89.90
7970;DHT22;4030;52.362;9.206;2023-03-13T16:55:20;16.20;90.00
7970;DHT22;4030;52.362;9.206;2023-03-13T16:57:49;16.20;90.10
7970;DHT22;4030;52.362;9.206;2023-03-13T17:00:16;16.10;90.20
7970;DHT22;4030;52.362;9.206;2023-03-13T17:05:11;16.00;90.30
7970;DHT22;4030;52.362;9.206;2023-03-13T17:07:40;15.90;90.40
7970;DHT22;4030;52.362;9.206;2023-03-13T17:10:22;15.80;90.40
7970;DHT22;4030;52.362;9.206;2023-03-13T17:12:52;15.80;90.50
7970;DHT22;4030;52.362;9.206;2023-03-13T17:15:19;15.60;90.50
7970;DHT22;4030;52.362;9.206;2023-03-13T17:17:48;15.70;90.70
7970;DHT22;4030;52.362;9.206;2023-03-13T17:20:26;15.60;90.70
7970;DHT22;4030;52.362;9.206;2023-03-13T17:25:22;15.40;90.80
7970;DHT22;4030;52.362;9.206;2023-03-13T17:27:49;15.50;91.00
7970;DHT22;4030;52.362;9.206;2023-03-13T17:30:34;15.30;91.00
7970;DHT22;4030;52.362;9.206;2023-03-13T17:33:00;15.10;91.00
7970;DHT22;4030;52.362;9.206;2023-03-13T17:35:26;15.20;91.10
7970;DHT22;4030;52.362;9.206;2023-03-13T17:37:52;15.00;91.10
7970;DHT22;4030;52.362;9.206;2023-03-13T17:42:45;15.10;91.30
7970;DHT22;4030;52.362;9.206;2023-03-13T17:45:11;15.10;91.40
7970;DHT22;4030;52.362;9.206;2023-03-13T17:50:25;14.90;91.20
7970;DHT22;4030;52.362;9.206;2023-03-13T17:52:51;14.80;91.20
7970;DHT22;4030;52.362;9.206;2023-03-13T17:55:18;14.80;91.20
7970;DHT22;4030;52.362;9.206;2023-03-13T18:00:23;14.70;91.30
7970;DHT22;4030;52.362;9.206;2023-03-13T18:02:51;14.70;91.50
7970;DHT22;4030;52.362;9.206;2023-03-13T18:05:17;14.60;91.40
7970;DHT22;4030;52.362;9.206;2023-03-13T18:07:43;14.60;91.40
7970;DHT22;4030;52.362;9.206;2023-03-13T18:10:16;14.60;91.40
7970;DHT22;4030;52.362;9.206;2023-03-13T18:12:43;14.50;91.30
7970;DHT22;4030;52.362;9.206;2023-03-13T18:15:09;14.60;91.40
7970;DHT22;4030;52.362;9.206;2023-03-13T18:17:35;14.50;91.30
7970;DHT22;4030;52.362;9.206;2023-03-13T18:27:20;14.40;91.40
7970;DHT22;4030;52.362;9.206;2023-03-13T18:29:47;14.40;91.40
7970;DHT22;4030;52.362;9.206;2023-03-13T18:32:15;14.30;91.40
7970;DHT22;4030;52.362;9.206;2023-03-13T18:34:42;14.30;91.50
7970;DHT22;4030;52.362;9.206;2023-03-13T18:37:17;14.20;91.40
7970;DHT22;4030;52.362;9.206;2023-03-13T18:44:41;14.20;91.40
7970;DHT22;4030;52.362;9.206;2023-03-13T18:47:14;14.20;91.40
7970;DHT22;4030;52.362;9.206;2023-03-13T18:49:41;14.10;91.30
7970;DHT22;4030;52.362;9.206;2023-03-13T18:52:09;14.10;91.30
7970;DHT22;4030;52.362;9.206;2023-03-13T18:57:01;14.10;91.40
7970;DHT22;4030;52.362;9.206;2023-03-13T19:02:11;14.00;91.30
7970;DHT22;4030;52.362;9.206;2023-03-13T19:04:38;13.90;91.20
7970;DHT22;4030;52.362;9.206;2023-03-13T19:07:13;14.00;91.30
7970;DHT22;4030;52.362;9.206;2023-03-13T19:09:40;14.00;91.30
7970;DHT22;4030;52.362;9.206;2023-03-13T19:12:07;13.90;91.30
7970;DHT22;4030;52.362;9.206;2023-03-13T19:14:34;13.90;91.20
7970;DHT22;4030;52.362;9.206;2023-03-13T19:17:00;13.90;91.20
7970;DHT22;4030;52.362;9.206;2023-03-13T19:21:53;13.90;91.20
7970;DHT22;4030;52.362;9.206;2023-03-13T19:24:21;13.80;91.10
7970;DHT22;4030;52.362;9.206;2023-03-13T19:26:50;13.80;91.10
7970;DHT22;4030;52.362;9.206;2023-03-13T19:29:20;13.70;91.10
7970;DHT22;4030;52.362;9.206;2023-03-13T19:31:47;13.70;91.10
7970;DHT22;4030;52.362;9.206;2023-03-13T19:34:13;13.70;91.10
7970;DHT22;4030;52.362;9.206;2023-03-13T19:36:44;13.60;91.00
7970;DHT22;4030;52.362;9.206;2023-03-13T19:39:19;13.60;91.00
7970;DHT22;4030;52.362;9.206;2023-03-13T19:41:48;13.60;91.00
7970;DHT22;4030;52.362;9.206;2023-03-13T19:44:15;13.50;91.00
7970;DHT22;4030;52.362;9.206;2023-03-13T19:46:41;13.60;91.10
7970;DHT22;4030;52.362;9.206;2023-03-13T19:49:18;13.50;91.00
7970;DHT22;4030;52.362;9.206;2023-03-13T19:54:11;13.50;91.00
7970;DHT22;4030;52.362;9.206;2023-03-13T19:56:43;13.50;91.00
7970;DHT22;4030;52.362;9.206;2023-03-13T19:59:21;13.50;91.00
7970;DHT22;4030;52.362;9.206;2023-03-13T20:01:48;13.50;91.00
7970;DHT22;4030;52.362;9.206;2023-03-13T20:04:14;13.30;90.90
7970;DHT22;4030;52.362;9.206;2023-03-13T20:06:41;13.30;90.80
7970;DHT22;4030;52.362;9.206;2023-03-13T20:09:10;13.40;90.90
7970;DHT22;4030;52.362;9.206;2023-03-13T20:11:37;13.30;90.80
7970;DHT22;4030;52.362;9.206;2023-03-13T20:14:04;13.40;90.80
7970;DHT22;4030;52.362;9.206;2023-03-13T20:16:30;13.40;90.80
7970;DHT22;4030;52.362;9.206;2023-03-13T20:18:57;13.30;90.80
7970;DHT22;4030;52.362;9.206;2023-03-13T20:21:27;13.40;90.80
7970;DHT22;4030;52.362;9.206;2023-03-13T20:23:54;13.40;90.80
7970;DHT22;4030;52.362;9.206;2023-03-13T20:28:48;13.30;90.80
7970;DHT22;4030;52.362;9.206;2023-03-13T20:31:17;13.20;90.70
7970;DHT22;4030;52.362;9.206;2023-03-13T20:33:45;13.30;90.80
7970;DHT22;4030;52.362;9.206;2023-03-13T20:36:13;13.20;90.80
7970;DHT22;4030;52.362;9.206;2023-03-13T20:38:40;13.20;90.80
7970;DHT22;4030;52.362;9.206;2023-03-13T20:43:33;13.20;90.80
7970;DHT22;4030;52.362;9.206;2023-03-13T20:45:59;13.20;90.90
7970;DHT22;4030;52.362;9.206;2023-03-13T20:48:26;13.10;90.90
7970;DHT22;4030;52.362;9.206;2023-03-13T20:50:54;13.20;91.00
7970;DHT22;4030;52.362;9.206;2023-03-13T20:53:22;13.00;91.00
7970;DHT22;4030;52.362;9.206;2023-03-13T20:58:15;13.10;91.10
7970;DHT22;4030;52.362;9.206;2023-03-13T21:00:44;13.10;91.10
7970;DHT22;4030;52.362;9.206;2023-03-13T21:05:40;13.10;91.20
7970;DHT22;4030;52.362;9.206;2023-03-13T21:08:06;13.10;91.20
7970;DHT22;4030;52.362;9.206;2023-03-13T21:10:39;13.10;91.20
7970;DHT22;4030;52.362;9.206;2023-03-13T21:13:07;13.00;91.20
7970;DHT22;4030;52.362;9.206;2023-03-13T21:17:59;13.10;91.30
7970;DHT22;4030;52.362;9.206;2023-03-13T21:20:26;13.00;91.30
7970;DHT22;4030;52.362;9.206;2023-03-13T21:25:19;13.00;91.40
7970;DHT22;4030;52.362;9.206;2023-03-13T21:27:45;13.00;91.40
7970;DHT22;4030;52.362;9.206;2023-03-13T21:30:15;12.90;91.40
7970;DHT22;4030;52.362;9.206;2023-03-13T21:32:42;13.10;91.50
7970;DHT22;4030;52.362;9.206;2023-03-13T21:35:08;13.00;91.50
7970;DHT22;4030;52.362;9.206;2023-03-13T21:37:35;12.90;91.40
7970;DHT22;4030;52.362;9.206;2023-03-13T21:40:01;12.90;91.50
7970;DHT22;4030;52.362;9.206;2023-03-13T21:42:27;12.90;91.50
7970;DHT22;4030;52.362;9.206;2023-03-13T21:49:52;13.00;91.50
7970;DHT22;4030;52.362;9.206;2023-03-13T21:52:19;12.80;91.40
7970;DHT22;4030;52.362;9.206;2023-03-13T21:54:45;12.80;91.40
7970;DHT22;4030;52.362;9.206;2023-03-13T21:57:11;12.80;91.50
7970;DHT22;4030;52.362;9.206;2023-03-13T21:59:37;12.80;91.50
7970;DHT22;4030;52.362;9.206;2023-03-13T22:02:03;12.70;91.40
7970;DHT22;4030;52.362;9.206;2023-03-13T22:04:29;12.70;91.40
7970;DHT22;4030;52.362;9.206;2023-03-13T22:09:20;12.70;91.40
7970;DHT22;4030;52.362;9.206;2023-03-13T22:16:39;12.70;91.40
7970;DHT22;4030;52.362;9.206;2023-03-13T22:19:05;12.70;91.40
7970;DHT22;4030;52.362;9.206;2023-03-13T22:26:23;12.60;91.40
7970;DHT22;4030;52.362;9.206;2023-03-13T22:36:07;12.50;91.30
7970;DHT22;4030;52.362;9.206;2023-03-13T22:38:34;12.50;91.40
7970;DHT22;4030;52.362;9.206;2023-03-13T22:41:04;12.50;91.30
7970;DHT22;4030;52.362;9.206;2023-03-13T22:43:32;12.50;91.40
7970;DHT22;4030;52.362;9.206;2023-03-13T22:45:58;12.40;91.30
7970;DHT22;4030;52.362;9.206;2023-03-13T22:48:24;12.50;91.40
7970;DHT22;4030;52.362;9.206;2023-03-13T22:51:08;12.50;91.40
7970;DHT22;4030;52.362;9.206;2023-03-13T22:53:36;12.50;91.40
7970;DHT22;4030;52.362;9.206;2023-03-13T22:56:03;12.50;91.40
7970;DHT22;4030;52.362;9.206;2023-03-13T23:00:57;12.40;91.40
7970;DHT22;4030;52.362;9.206;2023-03-13T23:03:23;12.50;91.40
7970;DHT22;4030;52.362;9.206;2023-03-13T23:05:48;12.40;91.40
7970;DHT22;4030;52.362;9.206;2023-03-13T23:08:15;12.40;91.40
7970;DHT22;4030;52.362;9.206;2023-03-13T23:10:42;12.40;91.40
7970;DHT22;4030;52.362;9.206;2023-03-13T23:13:09;12.30;91.30
7970;DHT22;4030;52.362;9.206;2023-03-13T23:15:35;12.30;91.30
7970;DHT22;4030;52.362;9.206;2023-03-13T23:18:00;12.40;91.40
7970;DHT22;4030;52.362;9.206;2023-03-13T23:25:19;12.30;91.30
7970;DHT22;4030;52.362;9.206;2023-03-13T23:27:44;12.30;91.30
7970;DHT22;4030;52.362;9.206;2023-03-13T23:30:12;12.30;91.30
7970;DHT22;4030;52.362;9.206;2023-03-13T23:32:42;12.30;91.30
7970;DHT22;4030;52.362;9.206;2023-03-13T23:35:10;12.30;91.30
7970;DHT22;4030;52.362;9.206;2023-03-13T23:40:06;12.30;91.30
7970;DHT22;4030;52.362;9.206;2023-03-13T23:42:33;12.30;91.40
7970;DHT22;4030;52.362;9.206;2023-03-13T23:44:59;12.20;91.30
7970;DHT22;4030;52.362;9.206;2023-03-13T23:47:27;12.10;91.20
7970;DHT22;4030;52.362;9.206;2023-03-13T23:49:54;12.20;91.30
7970;DHT22;4030;52.362;9.206;2023-03-13T23:52:20;12.20;91.30
7970;DHT22;4030;52.362;9.206;2023-03-13T23:54:46;12.20;91.30
7970;DHT22;4030;52.362;9.206;2023-03-13T23:57:12;12.20;91.30
7970;DHT22;4030;52.362;9.206;2023-03-13T23:59:37;12.00;91.20
